Terminal Aerodrome Forecast
Issued by NWS

Home | Current Version | Previous Version | Text Only | Print | Product List | Glossary On
Versions: 1 2 3 4 5 6 7 8 9 10 11 12 13 14 15 16 17 18 19 20 21 22 23 24 25 26 27 28 29 30 31
000
FTUS46 KLOX 121700
TAFLAX
TAF
KLAX 121721Z 1218/1324 23008KT P6SM FEW015 BKN220
     FM122000 27012KT P6SM FEW015 BKN220
     FM130400 28007KT P6SM FEW015 SCT200
     FM131000 VRB03KT 4SM BR BKN008
     FM131600 26007KT 6SM HZ FEW010 SCT200
     FM132100 25011KT P6SM FEW015 SCT200=

USA.gov is the U.S. government's official web portal to all federal, state and local government web resources and services.